createdAt,value
2023-12-16T00:01:05.770Z,11.27
2023-12-16T00:03:34.353Z,9.23
2023-12-16T00:06:04.207Z,13.25
2023-12-16T00:08:32.959Z,16.15
2023-12-16T00:11:01.593Z,12.32
2023-12-16T00:13:30.697Z,12.00
2023-12-16T00:15:59.978Z,11.95
2023-12-16T00:18:28.979Z,10.82
2023-12-16T00:20:57.838Z,11.27
2023-12-16T00:23:26.598Z,10.80
2023-12-16T00:25:55.230Z,11.20
2023-12-16T00:28:24.006Z,12.30
2023-12-16T00:30:52.763Z,11.27
2023-12-16T00:33:21.745Z,12.05
2023-12-16T00:35:50.493Z,12.23
2023-12-16T00:38:19.136Z,10.18
2023-12-16T00:40:47.869Z,15.05
2023-12-16T00:43:16.563Z,10.07
2023-12-16T00:45:45.346Z,14.80
2023-12-16T00:48:14.100Z,11.30
2023-12-16T00:50:45.055Z,10.82
2023-12-16T00:53:14.773Z,10.48
2023-12-16T00:55:43.680Z,11.45
2023-12-16T00:58:12.940Z,12.60
2023-12-16T01:00:42.020Z,11.02
2023-12-16T01:03:11.194Z,10.55
2023-12-16T01:05:42.801Z,10.85
2023-12-16T01:08:11.536Z,10.60
2023-12-16T01:10:41.157Z,12.20
2023-12-16T01:13:10.321Z,10.18
2023-12-16T01:15:39.042Z,11.05
2023-12-16T01:18:07.937Z,9.82
2023-12-16T01:20:36.061Z,11.05
2023-12-16T01:23:04.770Z,9.30
2023-12-16T01:25:33.426Z,10.73
2023-12-16T01:28:02.109Z,13.45
2023-12-16T01:30:31.702Z,11.55
2023-12-16T01:33:00.526Z,9.65
2023-12-16T01:35:29.236Z,10.82
2023-12-16T01:37:57.910Z,11.52
2023-12-16T01:40:26.761Z,11.38
2023-12-16T01:42:57.525Z,12.75
2023-12-16T01:45:26.261Z,10.65
2023-12-16T01:47:55.055Z,13.77
2023-12-16T01:50:23.749Z,11.93
2023-12-16T01:52:54.900Z,12.90
2023-12-16T01:55:24.199Z,14.35
2023-12-16T01:57:53.686Z,11.10
2023-12-16T02:00:25.530Z,9.77
2023-12-16T02:02:54.297Z,12.73
2023-12-16T02:05:22.896Z,12.75
2023-12-16T02:07:52.140Z,13.63
2023-12-16T02:10:21.235Z,15.35
2023-12-16T02:12:50.031Z,11.48
2023-12-16T02:15:19.174Z,9.68
2023-12-16T02:17:48.391Z,14.65
2023-12-16T02:20:17.579Z,16.75
2023-12-16T02:22:49.753Z,10.68
2023-12-16T02:25:18.654Z,11.23
2023-12-16T02:27:50.046Z,15.30
2023-12-16T02:30:19.006Z,8.75
2023-12-16T02:32:47.785Z,13.60
2023-12-16T02:35:16.451Z,14.18
2023-12-16T02:37:45.144Z,13.68
2023-12-16T02:40:14.271Z,13.20
2023-12-16T02:42:43.084Z,13.27
2023-12-16T02:45:11.990Z,12.02
2023-12-16T02:47:40.939Z,17.27
2023-12-16T02:50:10.266Z,16.35
2023-12-16T02:52:38.961Z,9.05
2023-12-16T02:55:08.121Z,12.57
2023-12-16T02:57:37.074Z,10.48
2023-12-16T03:00:07.008Z,13.60
2023-12-16T03:02:35.720Z,16.70
2023-12-16T03:05:04.477Z,13.73
2023-12-16T03:07:33.221Z,12.65
2023-12-16T03:10:01.911Z,16.80
2023-12-16T03:12:30.653Z,12.32
2023-12-16T03:14:59.379Z,19.90
2023-12-16T03:17:30.914Z,13.25
2023-12-16T03:19:59.357Z,17.48
2023-12-16T03:22:28.079Z,14.63
2023-12-16T03:24:56.876Z,11.57
2023-12-16T03:27:25.666Z,12.35
2023-12-16T03:29:54.312Z,18.33
2023-12-16T03:32:22.972Z,13.02
2023-12-16T03:34:51.596Z,11.55
2023-12-16T03:37:20.303Z,10.27
2023-12-16T03:39:49.043Z,10.13
2023-12-16T03:42:17.862Z,11.80
2023-12-16T03:44:49.206Z,11.57
2023-12-16T03:47:17.924Z,12.63
2023-12-16T03:49:46.745Z,12.93
2023-12-16T03:52:15.578Z,18.23
2023-12-16T03:54:44.599Z,13.32
2023-12-16T03:57:13.331Z,12.07
2023-12-16T03:59:42.058Z,11.43
2023-12-16T04:02:10.792Z,10.45
2023-12-16T04:04:39.386Z,10.68
2023-12-16T04:07:08.078Z,10.82
2023-12-16T04:09:36.862Z,9.93
2023-12-16T04:12:05.721Z,13.32
2023-12-16T04:14:39.030Z,10.75
2023-12-16T04:17:08.622Z,11.88
2023-12-16T04:19:37.321Z,9.55
2023-12-16T04:22:05.555Z,13.65
2023-12-16T04:24:34.423Z,15.88
2023-12-16T04:27:03.062Z,8.70
2023-12-16T04:29:31.672Z,14.25
2023-12-16T04:32:00.503Z,12.25
2023-12-16T04:34:29.481Z,12.57
2023-12-16T04:36:58.220Z,14.65
2023-12-16T04:39:26.887Z,10.30
2023-12-16T04:41:55.591Z,12.48
2023-12-16T04:44:24.280Z,9.23
2023-12-16T04:46:52.925Z,15.02
2023-12-16T04:49:21.788Z,18.15
2023-12-16T04:51:50.486Z,13.50
2023-12-16T04:54:19.237Z,10.15
2023-12-16T04:56:50.227Z,10.77
2023-12-16T04:59:18.841Z,11.27
2023-12-16T05:01:47.567Z,10.60
2023-12-16T05:04:16.441Z,9.55
2023-12-16T05:06:45.168Z,10.93
2023-12-16T05:09:14.906Z,12.35
2023-12-16T05:11:43.712Z,8.90
2023-12-16T05:14:12.572Z,11.05
2023-12-16T05:16:41.253Z,14.15
2023-12-16T05:19:10.093Z,12.32
2023-12-16T05:21:38.768Z,13.88
2023-12-16T05:24:07.537Z,15.48
2023-12-16T05:26:36.276Z,9.55
2023-12-16T05:29:05.092Z,10.73
2023-12-16T05:31:33.948Z,11.70
2023-12-16T05:34:02.690Z,12.43
2023-12-16T05:36:31.444Z,8.43
2023-12-16T05:39:00.077Z,14.27
2023-12-16T05:41:28.781Z,8.15
2023-12-16T05:43:57.449Z,10.82
2023-12-16T05:46:26.054Z,10.27
2023-12-16T05:48:54.804Z,16.08
2023-12-16T05:51:23.458Z,12.02
2023-12-16T05:53:52.084Z,9.25
2023-12-16T05:56:20.847Z,11.23
2023-12-16T05:58:49.491Z,12.52
2023-12-16T06:01:22.634Z,10.18
2023-12-16T06:03:52.047Z,9.30
2023-12-16T06:06:20.889Z,11.50
2023-12-16T06:08:49.629Z,9.10
2023-12-16T06:11:18.327Z,12.07
2023-12-16T06:13:47.438Z,10.57
2023-12-16T06:16:21.080Z,9.80
2023-12-16T06:18:50.862Z,14.85
2023-12-16T06:21:19.669Z,7.68
2023-12-16T06:23:48.437Z,13.93
2023-12-16T06:26:17.206Z,8.95
2023-12-16T06:28:45.811Z,13.45
2023-12-16T06:31:19.223Z,11.73
2023-12-16T06:33:48.520Z,11.85
2023-12-16T06:36:17.360Z,9.40
2023-12-16T06:38:46.122Z,9.60
2023-12-16T06:41:15.338Z,13.80
2023-12-16T06:43:44.004Z,17.35
2023-12-16T06:46:12.635Z,9.60
2023-12-16T06:48:41.657Z,12.00
2023-12-16T06:51:10.670Z,11.52
2023-12-16T06:53:39.327Z,7.80
2023-12-16T06:56:10.542Z,12.98
2023-12-16T06:58:40.527Z,15.23
2023-12-16T07:01:12.116Z,12.90
2023-12-16T07:03:41.284Z,11.55
2023-12-16T07:06:12.944Z,13.88
2023-12-16T07:08:43.210Z,9.27
2023-12-16T07:11:15.168Z,9.70
2023-12-16T07:13:44.426Z,11.00
2023-12-16T07:16:16.949Z,11.55
2023-12-16T07:18:45.957Z,9.88
2023-12-16T07:21:14.640Z,10.10
2023-12-16T07:23:43.367Z,9.68
2023-12-16T07:26:11.989Z,9.40
2023-12-16T07:28:40.628Z,13.68
2023-12-16T07:31:09.472Z,11.95
2023-12-16T07:33:41.323Z,12.10
2023-12-16T07:36:10.554Z,10.90
2023-12-16T07:38:39.272Z,9.45
2023-12-16T07:41:07.953Z,9.40
2023-12-16T07:43:36.845Z,10.05
2023-12-16T07:46:07.358Z,11.18
2023-12-16T07:48:36.144Z,10.00
2023-12-16T07:51:04.839Z,8.50
2023-12-16T07:53:33.467Z,10.55
2023-12-16T07:56:02.108Z,9.93
2023-12-16T07:58:30.800Z,9.43
2023-12-16T08:00:59.825Z,13.25
2023-12-16T08:03:29.039Z,9.65
2023-12-16T08:05:57.718Z,7.78
2023-12-16T08:08:26.483Z,8.18
2023-12-16T08:10:55.764Z,9.75
2023-12-16T08:13:24.804Z,10.07
2023-12-16T08:15:53.570Z,9.32
2023-12-16T08:18:22.176Z,8.43
2023-12-16T08:20:51.306Z,14.45
2023-12-16T08:23:20.149Z,9.40
2023-12-16T08:25:49.563Z,9.77
2023-12-16T08:28:19.076Z,8.15
2023-12-16T08:30:49.664Z,9.75
2023-12-16T08:33:18.587Z,7.03
2023-12-16T08:35:47.574Z,8.35
2023-12-16T08:38:16.317Z,11.45
2023-12-16T08:40:45.357Z,6.70
2023-12-16T08:43:14.113Z,8.90
2023-12-16T08:45:42.958Z,8.55
2023-12-16T08:48:11.612Z,10.23
2023-12-16T08:50:40.277Z,6.95
2023-12-16T08:53:17.933Z,7.25
2023-12-16T08:55:46.746Z,7.15
2023-12-16T08:58:15.535Z,6.38
2023-12-16T09:00:44.252Z,11.30
2023-12-16T09:03:16.068Z,8.30
2023-12-16T09:05:44.845Z,4.75
2023-12-16T09:08:13.523Z,5.82
2023-12-16T09:10:42.220Z,9.68
2023-12-16T09:13:11.009Z,4.53
2023-12-16T09:15:39.793Z,6.07
2023-12-16T09:18:08.784Z,5.82
2023-12-16T09:20:37.533Z,5.55
2023-12-16T09:23:06.168Z,6.72
2023-12-16T09:25:34.868Z,5.38
2023-12-16T09:28:03.805Z,5.55
2023-12-16T09:30:32.780Z,6.30
2023-12-16T09:33:01.576Z,5.65
2023-12-16T09:35:30.327Z,9.05
2023-12-16T09:37:58.928Z,7.05
2023-12-16T09:40:28.661Z,5.30
2023-12-16T09:43:05.163Z,6.78
2023-12-16T09:45:34.993Z,6.20
2023-12-16T09:48:03.843Z,8.00
2023-12-16T09:50:34.930Z,6.20
2023-12-16T09:53:03.643Z,6.13
2023-12-16T09:55:32.301Z,5.82
2023-12-16T09:58:02.188Z,7.13
2023-12-16T10:00:31.227Z,6.53
2023-12-16T10:03:00.293Z,7.78
2023-12-16T10:05:31.165Z,7.95
2023-12-16T10:08:02.071Z,4.97
2023-12-16T10:10:30.881Z,4.50
2023-12-16T10:13:05.866Z,5.65
2023-12-16T10:15:36.059Z,5.80
2023-12-16T10:18:05.907Z,6.13
2023-12-16T10:20:34.645Z,5.05
2023-12-16T10:23:04.523Z,6.00
2023-12-16T10:25:35.045Z,6.43
2023-12-16T10:28:04.712Z,7.07
2023-12-16T10:30:34.343Z,6.13
2023-12-16T10:33:06.199Z,5.78
2023-12-16T10:35:35.638Z,4.75
2023-12-16T10:38:04.822Z,6.20
2023-12-16T10:40:36.111Z,4.65
2023-12-16T10:43:06.039Z,6.38
2023-12-16T10:45:34.674Z,4.35
2023-12-16T10:48:08.035Z,7.30
2023-12-16T10:50:40.412Z,5.60
2023-12-16T10:53:17.013Z,6.50
2023-12-16T10:55:47.280Z,4.80
2023-12-16T10:58:30.598Z,6.90
2023-12-16T11:01:15.200Z,7.20
2023-12-16T11:03:57.366Z,4.90
2023-12-16T11:06:41.999Z,3.92
2023-12-16T11:09:11.643Z,6.85
2023-12-16T11:11:43.360Z,6.22
2023-12-16T11:14:13.300Z,4.80
2023-12-16T11:16:53.911Z,4.07
2023-12-16T11:19:25.944Z,4.95
2023-12-16T11:21:53.938Z,4.65
2023-12-16T11:24:22.683Z,3.42
2023-12-16T11:26:54.923Z,4.38
2023-12-16T11:29:27.154Z,3.00
2023-12-16T11:31:58.096Z,3.45
2023-12-16T11:34:42.111Z,4.55
2023-12-16T11:37:10.914Z,3.42
2023-12-16T11:39:47.769Z,3.40
2023-12-16T11:42:36.202Z,3.50
2023-12-16T11:45:05.005Z,4.70
2023-12-16T11:47:33.653Z,3.10
2023-12-16T11:50:02.502Z,2.63
2023-12-16T11:52:31.405Z,2.13
2023-12-16T11:55:00.805Z,2.95
2023-12-16T11:57:30.518Z,4.22
2023-12-16T11:59:59.478Z,1.90
2023-12-16T12:02:28.154Z,3.35
2023-12-16T12:04:57.388Z,3.00
2023-12-16T12:07:26.413Z,7.28
2023-12-16T12:09:55.460Z,2.72
2023-12-16T12:12:24.053Z,2.88
2023-12-16T12:14:52.718Z,3.00
2023-12-16T12:17:21.593Z,3.20
2023-12-16T12:19:51.218Z,2.38
2023-12-16T12:22:23.133Z,3.03
2023-12-16T12:24:52.852Z,3.35
2023-12-16T12:27:21.654Z,2.28
2023-12-16T12:30:03.791Z,2.55
2023-12-16T12:32:34.731Z,2.58
2023-12-16T12:35:08.312Z,1.92
2023-12-16T12:37:42.262Z,2.33
2023-12-16T12:40:17.072Z,1.90
2023-12-16T12:43:00.107Z,1.52
2023-12-16T12:45:35.945Z,2.42
2023-12-16T12:48:20.149Z,2.42
2023-12-16T12:50:49.966Z,2.45
2023-12-16T12:53:26.525Z,1.73
2023-12-16T12:55:59.171Z,2.22
2023-12-16T12:58:30.376Z,1.75
2023-12-16T13:01:05.207Z,2.90
2023-12-16T13:03:36.141Z,2.15
2023-12-16T13:06:07.632Z,1.33
2023-12-16T13:08:38.949Z,3.08
2023-12-16T13:11:07.774Z,2.08
2023-12-16T13:13:36.526Z,2.80
2023-12-16T13:16:05.653Z,1.55
2023-12-16T13:18:37.787Z,1.50
2023-12-16T13:21:08.548Z,1.48
2023-12-16T13:23:37.263Z,1.90
2023-12-16T13:26:10.007Z,1.60
2023-12-16T13:28:38.647Z,0.98
2023-12-16T13:31:08.471Z,0.95
2023-12-16T13:33:37.809Z,1.20
2023-12-16T13:36:32.589Z,1.52
2023-12-16T13:38:56.867Z,0.80
2023-12-16T13:41:25.504Z,0.82
2023-12-16T13:43:54.101Z,0.77
2023-12-16T13:46:22.820Z,0.70
2023-12-16T13:48:51.642Z,0.98
2023-12-16T13:51:20.444Z,0.70
2023-12-16T13:53:49.186Z,1.45
2023-12-16T13:56:17.874Z,0.80
2023-12-16T13:58:46.481Z,1.35
2023-12-16T14:01:15.101Z,0.70
2023-12-16T14:03:43.912Z,1.35
2023-12-16T14:06:14.345Z,0.60
2023-12-16T14:08:43.499Z,0.80
2023-12-16T14:11:12.142Z,0.80
2023-12-16T14:13:41.143Z,0.80
2023-12-16T14:16:10.319Z,0.60
2023-12-16T14:18:39.156Z,0.80
2023-12-16T14:21:08.341Z,2.28
2023-12-16T14:23:37.084Z,0.70
2023-12-16T14:26:06.363Z,0.70
2023-12-16T14:28:35.164Z,0.60
2023-12-16T14:31:04.019Z,1.10
2023-12-16T14:33:32.749Z,1.00
2023-12-16T14:36:01.621Z,0.82
2023-12-16T14:38:30.401Z,0.80
2023-12-16T14:40:59.033Z,0.75
2023-12-16T14:43:28.017Z,0.88
2023-12-16T14:45:56.703Z,0.70
2023-12-16T14:48:25.787Z,0.70
2023-12-16T14:50:54.579Z,1.67
2023-12-16T14:53:23.333Z,0.70
2023-12-16T14:55:51.985Z,0.95
2023-12-16T14:58:20.593Z,1.40
2023-12-16T15:00:49.250Z,0.80
2023-12-16T15:03:17.971Z,0.70
2023-12-16T15:05:47.168Z,1.15
2023-12-16T15:08:15.910Z,1.40
2023-12-16T15:10:44.617Z,0.80
2023-12-16T15:13:13.301Z,1.00
2023-12-16T15:15:44.099Z,1.00
2023-12-16T15:18:13.896Z,0.95
2023-12-16T15:20:42.738Z,1.55
2023-12-16T15:23:11.531Z,0.80
2023-12-16T15:25:40.168Z,1.98
2023-12-16T15:28:08.871Z,0.60
2023-12-16T15:30:37.537Z,0.68
2023-12-16T15:33:06.365Z,1.40
2023-12-16T15:35:35.158Z,1.35
2023-12-16T15:38:03.925Z,1.15
2023-12-16T15:40:35.571Z,1.05
2023-12-16T15:43:05.437Z,0.88
2023-12-16T15:45:34.065Z,1.23
2023-12-16T15:48:02.859Z,2.13
2023-12-16T15:50:31.798Z,0.77
2023-12-16T15:53:00.419Z,1.27
2023-12-16T15:55:29.156Z,1.20
2023-12-16T15:57:57.854Z,1.20
2023-12-16T16:00:28.744Z,0.75
2023-12-16T16:02:58.582Z,1.23
2023-12-16T16:05:27.306Z,1.02
2023-12-16T16:07:56.201Z,0.95
2023-12-16T16:10:24.884Z,0.90
2023-12-16T16:12:56.671Z,1.20
2023-12-16T16:15:25.385Z,0.70
2023-12-16T16:17:54.108Z,1.42
2023-12-16T16:20:23.098Z,1.13
2023-12-16T16:22:51.924Z,0.90
2023-12-16T16:25:20.579Z,0.77
2023-12-16T16:27:49.204Z,2.00
2023-12-16T16:30:18.146Z,1.85
2023-12-16T16:32:46.973Z,1.00
2023-12-16T16:35:15.751Z,1.00
2023-12-16T16:37:44.461Z,0.98
2023-12-16T16:40:13.562Z,2.22
2023-12-16T16:42:42.261Z,1.10
2023-12-16T16:45:11.497Z,1.70
2023-12-16T16:47:40.640Z,2.30
2023-12-16T16:50:09.668Z,1.67
2023-12-16T16:52:40.803Z,15.82
2023-12-16T16:55:09.978Z,1.88
2023-12-16T16:57:39.005Z,3.03
2023-12-16T17:00:11.666Z,7.53
2023-12-16T17:02:41.118Z,9.87
2023-12-16T17:05:12.234Z,8.85
2023-12-16T17:07:41.091Z,2.15
2023-12-16T17:10:10.308Z,2.13
2023-12-16T17:12:39.900Z,1.20
2023-12-16T17:15:09.197Z,1.83
2023-12-16T17:17:38.245Z,1.75
2023-12-16T17:20:12.222Z,1.30
2023-12-16T17:22:41.894Z,1.02
2023-12-16T17:25:12.387Z,0.77
2023-12-16T17:27:41.433Z,1.80
2023-12-16T17:30:10.947Z,1.45
2023-12-16T17:32:39.819Z,1.70
2023-12-16T17:35:09.047Z,2.58
2023-12-16T17:37:37.779Z,1.20
2023-12-16T17:40:06.897Z,1.42
2023-12-16T17:42:35.642Z,1.60
2023-12-16T17:45:04.390Z,0.80
2023-12-16T17:47:33.263Z,0.80
2023-12-16T17:50:03.479Z,1.42
2023-12-16T17:52:32.205Z,0.85
2023-12-16T17:55:00.829Z,1.30
2023-12-16T17:57:29.961Z,1.10
2023-12-16T17:59:58.858Z,1.48
2023-12-16T18:02:27.481Z,1.15
2023-12-16T18:04:56.236Z,1.38
2023-12-16T18:07:24.855Z,0.98
2023-12-16T18:09:53.445Z,1.25
2023-12-16T18:12:22.125Z,0.77
2023-12-16T18:14:50.924Z,1.33
2023-12-16T18:17:19.681Z,1.23
2023-12-16T18:19:48.551Z,2.10
2023-12-16T18:22:17.309Z,1.50
2023-12-16T18:24:45.912Z,0.77
2023-12-16T18:27:14.718Z,1.33
2023-12-16T18:29:43.609Z,1.13
2023-12-16T18:32:12.224Z,0.85
2023-12-16T18:34:40.973Z,0.80
2023-12-16T18:37:09.648Z,0.80
2023-12-16T18:39:38.584Z,0.80
2023-12-16T18:42:08.810Z,1.30
2023-12-16T18:44:37.613Z,1.25
2023-12-16T18:47:07.364Z,0.80
2023-12-16T18:49:35.604Z,1.58
2023-12-16T18:52:04.428Z,1.15
2023-12-16T18:54:35.158Z,1.08
2023-12-16T18:57:03.966Z,1.70
2023-12-16T18:59:32.702Z,1.42
2023-12-16T19:02:01.324Z,1.00
2023-12-16T19:04:30.068Z,1.30
2023-12-16T19:06:58.725Z,2.50
2023-12-16T19:09:27.473Z,0.77
2023-12-16T19:11:57.656Z,1.63
2023-12-16T19:14:26.402Z,1.00
2023-12-16T19:16:55.442Z,1.52
2023-12-16T19:19:24.256Z,1.20
2023-12-16T19:21:52.968Z,1.17
2023-12-16T19:24:21.708Z,1.20
2023-12-16T19:26:50.397Z,1.02
2023-12-16T19:29:19.090Z,1.70
2023-12-16T19:31:47.729Z,1.40
2023-12-16T19:34:16.527Z,1.20
2023-12-16T19:36:47.063Z,1.42
2023-12-16T19:39:23.868Z,2.17
2023-12-16T19:41:53.717Z,1.65
2023-12-16T19:44:23.712Z,2.28
2023-12-16T19:46:52.615Z,2.42
2023-12-16T19:49:20.712Z,2.15
2023-12-16T19:51:51.204Z,1.40
2023-12-16T19:54:20.790Z,3.05
2023-12-16T19:56:48.927Z,1.70
2023-12-16T19:59:17.631Z,1.10
2023-12-16T20:01:49.564Z,1.55
2023-12-16T20:04:18.612Z,0.85
2023-12-16T20:06:47.333Z,0.98
2023-12-16T20:09:16.208Z,1.00
2023-12-16T20:11:44.984Z,0.70
2023-12-16T20:14:14.071Z,0.77
2023-12-16T20:16:43.561Z,1.02
2023-12-16T20:19:12.715Z,1.00
2023-12-16T20:21:41.552Z,1.30
2023-12-16T20:24:10.260Z,0.85
2023-12-16T20:26:39.265Z,1.85
2023-12-16T20:29:08.073Z,1.15
2023-12-16T20:31:36.906Z,1.30
2023-12-16T20:34:05.944Z,1.95
2023-12-16T20:36:35.762Z,0.80
2023-12-16T20:39:22.764Z,1.13
2023-12-16T20:41:51.510Z,0.65
2023-12-16T20:44:20.151Z,0.70
2023-12-16T20:46:48.928Z,0.70
2023-12-16T20:49:17.774Z,1.00
2023-12-16T20:51:46.511Z,1.77
2023-12-16T20:54:15.477Z,0.93
2023-12-16T20:56:44.363Z,1.25
2023-12-16T20:59:13.009Z,0.73
2023-12-16T21:01:41.686Z,0.70
2023-12-16T21:04:10.443Z,0.77
2023-12-16T21:06:39.376Z,0.80
2023-12-16T21:09:08.180Z,1.15
2023-12-16T21:11:36.967Z,0.93
2023-12-16T21:14:05.739Z,1.40
2023-12-16T21:16:34.425Z,0.80
2023-12-16T21:19:03.414Z,1.27
2023-12-16T21:21:31.572Z,1.05
2023-12-16T21:24:00.254Z,0.90
2023-12-16T21:26:29.260Z,1.02
2023-12-16T21:28:58.991Z,0.85
2023-12-16T21:31:28.111Z,1.48
2023-12-16T21:34:00.096Z,2.38
2023-12-16T21:36:30.692Z,0.80
2023-12-16T21:38:59.414Z,1.38
2023-12-16T21:41:27.421Z,0.68
2023-12-16T21:43:58.124Z,0.70
2023-12-16T21:46:26.970Z,0.98
2023-12-16T21:48:55.797Z,0.50
2023-12-16T21:51:24.557Z,1.75
2023-12-16T21:53:53.273Z,0.60
2023-12-16T21:56:23.954Z,1.08
2023-12-16T21:58:52.557Z,1.15
2023-12-16T22:01:21.784Z,1.10
2023-12-16T22:03:51.507Z,0.70
2023-12-16T22:06:20.898Z,0.77
2023-12-16T22:08:55.538Z,0.50
2023-12-16T22:11:25.247Z,0.60
2023-12-16T22:13:54.291Z,0.80
2023-12-16T22:16:23.734Z,0.55
2023-12-16T22:18:52.481Z,0.57
2023-12-16T22:21:21.205Z,1.15
2023-12-16T22:23:49.910Z,1.00
2023-12-16T22:26:18.642Z,0.63
2023-12-16T22:28:47.943Z,1.35
2023-12-16T22:31:16.988Z,0.60
2023-12-16T22:33:45.973Z,0.60
2023-12-16T22:36:15.913Z,0.60
2023-12-16T22:38:44.783Z,0.60
2023-12-16T22:41:14.416Z,5.15
2023-12-16T22:43:43.099Z,0.60
2023-12-16T22:46:12.065Z,0.70
2023-12-16T22:48:41.007Z,0.88
2023-12-16T22:51:10.485Z,0.68
2023-12-16T22:53:39.240Z,0.73
2023-12-16T22:56:08.401Z,0.77
2023-12-16T22:58:40.324Z,0.60
2023-12-16T23:01:10.497Z,1.00
2023-12-16T23:03:39.555Z,0.98
2023-12-16T23:06:10.697Z,1.35
2023-12-16T23:08:40.334Z,0.70
2023-12-16T23:11:10.685Z,0.95
2023-12-16T23:13:39.877Z,0.80
2023-12-16T23:16:09.772Z,1.33
2023-12-16T23:18:38.613Z,0.80
2023-12-16T23:21:09.003Z,1.02
2023-12-16T23:23:37.749Z,0.75
2023-12-16T23:26:06.636Z,0.95
2023-12-16T23:28:35.362Z,2.72
2023-12-16T23:31:11.257Z,1.70
2023-12-16T23:33:44.993Z,0.85
2023-12-16T23:36:14.179Z,0.90
2023-12-16T23:38:43.125Z,1.40
2023-12-16T23:41:19.582Z,0.60
2023-12-16T23:43:51.743Z,1.42
2023-12-16T23:46:22.962Z,0.93
2023-12-16T23:48:51.821Z,1.17
2023-12-16T23:51:20.494Z,0.60
2023-12-16T23:53:50.024Z,0.73
2023-12-16T23:56:19.286Z,0.85
2023-12-16T23:58:47.964Z,1.10
